Shelby — WCV6157 — position and weather

sailwx.info

Track history (hours):
 
Tides and Currents Weather Stations Pressure Air Temp Water Temp Dewpoint Dewpoint Depression Visibility Wind Speed Wind Dir Waves Ship Positions

Shelby

Owner: WEEKS MARINE, INC., CRANFORD, NJ. More information available from US FCC via Universal Licensing System and Coast Guard Vessel Documentation Center.

Last reported at 2018-Feb-20 00:00 UTC. Time now 2018-Feb-20 00:06 UTC.
Position N 39°49' W 075°22'.

Length 22 m; draft 3.1 m.

Type: Tug. MMSI: 366902344.

Date/timePositionNaut miles runAvg speedWind from/ knotsBaromVisibWave heightAir tempDewpointWater temp
2018-Feb-20 00:00N 39°49' W 075°22'0 0.6
2018-Feb-19 23:31N 39°50' W 075°22'2 4.4
2018-Feb-19 23:00N 39°51' W 075°20'1 2.9
2018-Feb-19 22:30N 39°51' W 075°18'0 0.0
2018-Feb-19 22:00N 39°51' W 075°18'0 0.0
2018-Feb-19 21:30N 39°51' W 075°18'0 0.0
2018-Feb-19 21:00N 39°51' W 075°18'0 0.0
2018-Feb-19 20:30N 39°51' W 075°18'0 0.0
2018-Feb-19 20:00N 39°51' W 075°18'0 0.0
2018-Feb-19 19:30N 39°51' W 075°18'0 0.0
2018-Feb-19 19:01N 39°51' W 075°18'2 4.7
2018-Feb-19 18:30N 39°51' W 075°21'1 1.6
2018-Feb-19 18:00N 39°50' W 075°22'3 6.2
2018-Feb-19 17:30N 39°51' W 075°18'0 0.1
2018-Feb-19 17:00N 39°51' W 075°18'0 0.0
2018-Feb-19 16:30N 39°51' W 075°18'0 0.2
2018-Feb-19 16:01N 39°51' W 075°18'0 0.2
2018-Feb-19 15:30N 39°51' W 075°18'0 0.0
2018-Feb-19 15:00N 39°51' W 075°18'0 0.0
2018-Feb-19 14:30N 39°51' W 075°18'0 0.0
2018-Feb-19 14:00N 39°51' W 075°18'0 0.0
2018-Feb-19 13:30N 39°51' W 075°18'0 0.2
2018-Feb-19 13:00N 39°51' W 075°18'0 0.2
2018-Feb-19 12:30N 39°51' W 075°18'0 0.2
2018-Feb-19 12:00N 39°51' W 075°18'1 3.0
2018-Feb-19 11:30N 39°51' W 075°20'2 4.0
2018-Feb-19 11:00N 39°49' W 075°21'0 0.0
2018-Feb-19 10:31N 39°49' W 075°21'0 0.0
2018-Feb-19 10:01N 39°49' W 075°21'0 0.0
2018-Feb-19 09:31N 39°49' W 075°21'0 0.0
2018-Feb-19 09:00N 39°49' W 075°21'0 0.0
2018-Feb-19 08:30N 39°49' W 075°21'0 0.0
2018-Feb-19 08:00N 39°49' W 075°21'0 0.0
2018-Feb-19 07:31N 39°49' W 075°21'0 0.0
2018-Feb-19 07:01N 39°49' W 075°21'0 0.0
2018-Feb-19 06:31N 39°49' W 075°21'0 0.0
2018-Feb-19 06:01N 39°49' W 075°21'0 0.0
2018-Feb-19 05:31N 39°49' W 075°21'0 0.0
2018-Feb-19 05:00N 39°49' W 075°21'0 0.0
2018-Feb-19 04:30N 39°49' W 075°21'0 0.0
2018-Feb-19 04:00N 39°49' W 075°21'0 0.0
2018-Feb-19 03:30N 39°49' W 075°21'0 0.0
2018-Feb-19 03:01N 39°49' W 075°21'0 0.0
2018-Feb-19 02:30N 39°49' W 075°21'0 0.0
2018-Feb-19 02:01N 39°49' W 075°21'0 0.0
2018-Feb-19 01:30N 39°49' W 075°21'0 0.0
2018-Feb-19 01:01N 39°49' W 075°21'0 0.0
2018-Feb-19 00:31N 39°49' W 075°21'0 0.1
2018-Feb-19 00:00N 39°50' W 075°21'1 2.1
2018-Feb-18 23:30N 39°51' W 075°21'3 5.1
2018-Feb-18 23:01N 39°51' W 075°18'0 0.1
2018-Feb-18 22:30N 39°51' W 075°18'0 0.1
2018-Feb-18 22:01N 39°51' W 075°18'0 0.0
2018-Feb-18 21:31N 39°51' W 075°18'0 0.0
2018-Feb-18 21:00N 39°51' W 075°18'0 0.0
2018-Feb-18 20:30N 39°51' W 075°18'0 0.1
2018-Feb-18 20:00N 39°51' W 075°18'0 0.0
2018-Feb-18 19:30N 39°51' W 075°18'0 0.2
2018-Feb-18 19:00N 39°51' W 075°18'0 0.5
2018-Feb-18 18:31N 39°51' W 075°18'3 6.4
2018-Feb-18 18:01N 39°50' W 075°22'0 0.9
2018-Feb-18 17:31N 39°49' W 075°21'1 2.1
2018-Feb-18 17:01N 39°50' W 075°21'2 4.9
2018-Feb-18 16:30N 39°51' W 075°18'0 0.1
2018-Feb-18 16:00N 39°51' W 075°18'0 0.0
2018-Feb-18 15:30N 39°51' W 075°18'0 0.0
2018-Feb-18 15:00N 39°51' W 075°18'0 0.0
2018-Feb-18 14:30N 39°51' W 075°18'0 0.0
2018-Feb-18 14:00N 39°51' W 075°18'0 0.0
2018-Feb-18 13:31N 39°51' W 075°18'0 0.0
2018-Feb-18 13:00N 39°51' W 075°18'0 0.2
2018-Feb-18 12:31N 39°51' W 075°18'0 0.2
2018-Feb-18 12:00N 39°51' W 075°18'2 4.3
2018-Feb-18 11:30N 39°51' W 075°21'1 2.8
2018-Feb-18 11:01N 39°49' W 075°22'0 0.0
2018-Feb-18 10:30N 39°49' W 075°22'0 0.0
2018-Feb-18 10:00N 39°49' W 075°22'0 0.0
2018-Feb-18 09:31N 39°49' W 075°22'0 0.0
2018-Feb-18 09:00N 39°49' W 075°22'0 0.0
2018-Feb-18 08:30N 39°49' W 075°22'0 0.0
2018-Feb-18 08:00N 39°49' W 075°22'0 0.0
2018-Feb-18 07:31N 39°49' W 075°22'0 0.0
2018-Feb-18 07:01N 39°49' W 075°22'0 0.0
2018-Feb-18 06:31N 39°49' W 075°22'0 0.0
2018-Feb-18 06:01N 39°49' W 075°22'0 0.0
2018-Feb-18 05:30N 39°49' W 075°22'0 0.0
2018-Feb-18 05:01N 39°49' W 075°22'0 0.0
2018-Feb-18 04:30N 39°49' W 075°22'0 0.0
2018-Feb-18 04:01N 39°49' W 075°22'0 0.0
2018-Feb-18 03:30N 39°49' W 075°22'0 0.0
2018-Feb-18 03:00N 39°49' W 075°22'0 0.0
2018-Feb-18 02:30N 39°49' W 075°22'0 0.0
2018-Feb-18 02:01N 39°49' W 075°22'0 0.1
2018-Feb-18 01:30N 39°49' W 075°22'3 6.3
2018-Feb-18 01:00N 39°51' W 075°18'0 0.0
2018-Feb-18 00:29N 39°51' W 075°18'0 0.0
2018-Feb-18 00:01N 39°51' W 075°18'0 0.0
2018-Feb-17 23:30N 39°51' W 075°18'0 0.1
2018-Feb-17 23:00N 39°51' W 075°18'0 0.0
2018-Feb-17 22:31N 39°51' W 075°18'0 0.0
2018-Feb-17 22:00N 39°51' W 075°18'0 0.1
2018-Feb-17 21:31N 39°51' W 075°18'0 0.0
2018-Feb-17 21:00N 39°51' W 075°18'0 0.0
2018-Feb-17 20:30N 39°51' W 075°18'0 0.0
2018-Feb-17 20:00N 39°51' W 075°18'0 0.0
2018-Feb-17 19:31N 39°51' W 075°18'0 0.1
2018-Feb-17 19:00N 39°51' W 075°18'0 0.0
2018-Feb-17 18:30N 39°51' W 075°18'0 0.0
2018-Feb-17 18:00N 39°51' W 075°18'0 0.0
2018-Feb-17 17:30N 39°51' W 075°18'0 0.0
2018-Feb-17 17:00N 39°51' W 075°18'0 0.0
2018-Feb-17 16:30N 39°51' W 075°18'0 0.2
2018-Feb-17 16:00N 39°51' W 075°18'0 0.2
2018-Feb-17 15:30N 39°51' W 075°18'1 3.0
2018-Feb-17 15:01N 39°51' W 075°20'2 3.9
2018-Feb-17 14:30N 39°49' W 075°21'0 0.1
2018-Feb-17 14:01N 39°50' W 075°22'3 6.0
2018-Feb-17 13:31N 39°51' W 075°18'0 0.3
2018-Feb-17 13:00N 39°51' W 075°18'0 0.0
2018-Feb-17 12:31N 39°51' W 075°18'0 0.0
2018-Feb-17 12:00N 39°51' W 075°18'0 0.0
2018-Feb-16 18:54N 39°51' W 075°18'0 0.0
2018-Feb-16 18:31N 39°51' W 075°18'0 0.0
2018-Feb-16 18:01N 39°51' W 075°18'0 0.0
2018-Feb-16 17:30N 39°51' W 075°18'0 0.0
2018-Feb-16 17:00N 39°51' W 075°18'0 0.0
2018-Feb-16 16:31N 39°51' W 075°18'0 0.0
2018-Feb-16 16:00N 39°51' W 075°18'0 0.0
2018-Feb-16 15:31N 39°51' W 075°18'0 0.0
2018-Feb-16 15:01N 39°51' W 075°18'1 2.5
2018-Feb-16 14:30N 39°51' W 075°19'2 4.3
2018-Feb-16 14:01N 39°50' W 075°22'2 3.5
2018-Feb-16 13:31N 39°51' W 075°20'2 3.4
2018-Feb-16 13:00N 39°51' W 075°18'0 0.0
2018-Feb-16 12:30N 39°51' W 075°18'0 0.0
2018-Feb-16 12:00N 39°51' W 075°18'2 3.5
2018-Feb-16 11:30N 39°51' W 075°20'2 3.4
2018-Feb-16 11:01N 39°50' W 075°22'0 0.1
2018-Feb-16 10:31N 39°49' W 075°21'0 0.0
2018-Feb-16 10:01N 39°49' W 075°21'0 0.0
2018-Feb-16 09:31N 39°49' W 075°21'0 0.0
2018-Feb-16 09:00N 39°49' W 075°21'0 0.0
2018-Feb-16 08:30N 39°49' W 075°21'0 0.0
2018-Feb-16 08:00N 39°49' W 075°21'0 0.0
2018-Feb-16 07:31N 39°49' W 075°21'0 0.0
2018-Feb-16 07:01N 39°49' W 075°21'0 0.0
2018-Feb-16 06:31N 39°49' W 075°21'0 0.0
2018-Feb-16 06:01N 39°49' W 075°21'0 0.0
2018-Feb-16 05:30N 39°49' W 075°21'0 0.0
2018-Feb-16 05:01N 39°49' W 075°21'0 0.0
2018-Feb-16 04:30N 39°49' W 075°21'0 0.0
2018-Feb-16 04:00N 39°49' W 075°21'0 0.0
2018-Feb-16 03:31N 39°49' W 075°21'0 0.0
2018-Feb-16 03:01N 39°49' W 075°21'0 0.0
2018-Feb-16 02:31N 39°49' W 075°21'0 0.0
2018-Feb-16 02:00N 39°49' W 075°21'0 0.0
2018-Feb-16 01:30N 39°49' W 075°21'1 0.6
2018-Feb-15 23:06N 39°51' W 075°21'1 9.7
2018-Feb-15 23:00N 39°51' W 075°19'1 2.5
2018-Feb-15 22:30N 39°51' W 075°18'0 0.0
2018-Feb-15 22:00N 39°51' W 075°18'0 0.1
2018-Feb-15 21:30N 39°51' W 075°18'0 0.2
2018-Feb-15 21:01N 39°51' W 075°18'0 0.0
2018-Feb-15 20:31N 39°51' W 075°18'0 0.0
2018-Feb-15 20:00N 39°51' W 075°18'0 0.2
2018-Feb-15 19:31N 39°51' W 075°18'0 0.3
2018-Feb-15 19:01N 39°51' W 075°18'0 0.0
2018-Feb-15 18:30N 39°51' W 075°18'0 0.1
2018-Feb-15 18:01N 39°51' W 075°18'0 0.0
2018-Feb-15 17:30N 39°51' W 075°18'0 0.0
2018-Feb-15 17:00N 39°51' W 075°18'0 0.0
2018-Feb-15 16:30N 39°51' W 075°18'0 0.0
2018-Feb-15 16:00N 39°51' W 075°18'0 0.0
2018-Feb-15 15:30N 39°51' W 075°18'0 0.0
2018-Feb-15 15:01N 39°51' W 075°18'0 0.0
2018-Feb-15 14:30N 39°51' W 075°18'0 0.0
2018-Feb-15 14:00N 39°51' W 075°18'0 0.3
2018-Feb-15 13:30N 39°51' W 075°18'0 0.0
2018-Feb-15 13:01N 39°51' W 075°18'0 0.1
2018-Feb-15 12:31N 39°51' W 075°18'1 1.9
2018-Feb-15 12:01N 39°51' W 075°19'2 4.7
2018-Feb-15 11:31N 39°50' W 075°22'0 0.3
2018-Feb-15 11:01N 39°49' W 075°21'0 0.0
2018-Feb-15 10:31N 39°49' W 075°21'0 0.0
2018-Feb-15 10:01N 39°49' W 075°21'0 0.0
2018-Feb-15 09:30N 39°49' W 075°21'0 0.0
2018-Feb-15 09:01N 39°49' W 075°21'0 0.0
2018-Feb-15 08:30N 39°49' W 075°21'0 0.0
2018-Feb-15 08:01N 39°49' W 075°21'0 0.0
2018-Feb-15 07:30N 39°49' W 075°21'0 0.0
2018-Feb-15 07:00N 39°49' W 075°21'0 0.0
2018-Feb-15 06:30N 39°49' W 075°21'0 0.0
2018-Feb-15 06:00N 39°49' W 075°21'0 0.0
2018-Feb-15 05:31N 39°49' W 075°21'0 0.0
2018-Feb-15 05:01N 39°49' W 075°21'0 0.0
2018-Feb-15 04:30N 39°49' W 075°21'0 0.0
2018-Feb-15 04:00N 39°49' W 075°21'0 0.0
2018-Feb-15 03:31N 39°49' W 075°21'0 0.0
2018-Feb-15 03:01N 39°49' W 075°21'0 0.0
2018-Feb-15 02:31N 39°49' W 075°21'0 0.0
2018-Feb-15 02:00N 39°49' W 075°21'0 0.0
2018-Feb-15 01:31N 39°49' W 075°21'0 0.0
2018-Feb-15 01:01N 39°49' W 075°21'0 0.0
2018-Feb-15 00:30N 39°49' W 075°21'0 0.0
2018-Feb-15 00:00N 39°49' W 075°21'0 0.0
2018-Feb-14 23:31N 39°49' W 075°21'0 0.0
2018-Feb-14 23:01N 39°49' W 075°21'0 0.9
2018-Feb-14 22:31N 39°50' W 075°22'3 6.7
2018-Feb-14 22:00N 39°51' W 075°18'0 0.1
2018-Feb-14 21:30N 39°51' W 075°18'0 0.3
2018-Feb-14 21:00N 39°51' W 075°18'0 0.0
2018-Feb-14 20:30N 39°51' W 075°18'0 0.0
2018-Feb-14 20:00N 39°51' W 075°18'0 0.0
2018-Feb-14 19:30N 39°51' W 075°18'0 0.0
2018-Feb-14 19:00N 39°51' W 075°18'0 0.0
2018-Feb-14 18:30N 39°51' W 075°18'0 0.0
2018-Feb-14 18:00N 39°51' W 075°18'0 0.0
2018-Feb-14 17:31N 39°51' W 075°18'0 0.0
2018-Feb-14 17:00N 39°51' W 075°18'0 0.0
2018-Feb-14 16:30N 39°51' W 075°18'0 0.0
2018-Feb-14 16:01N 39°51' W 075°18'0 0.3
2018-Feb-14 15:30N 39°51' W 075°18'0 0.1
2018-Feb-14 15:01N 39°51' W 075°18'0 0.1
2018-Feb-14 14:30N 39°51' W 075°18'0 0.0
2018-Feb-14 14:01N 39°51' W 075°18'0 0.0
2018-Feb-14 13:30N 39°51' W 075°18'0 0.1
2018-Feb-14 13:01N 39°51' W 075°18'0 0.1
2018-Feb-14 12:30N 39°51' W 075°18'0 0.0
2018-Feb-14 12:00N 39°51' W 075°18'0 0.0
2018-Feb-14 11:30N 39°51' W 075°18'0 0.0
2018-Feb-14 11:00N 39°51' W 075°18'0 0.0
2018-Feb-14 10:31N 39°51' W 075°18'0 0.0
2018-Feb-14 10:00N 39°51' W 075°18'0 0.0
2018-Feb-14 09:30N 39°51' W 075°18'0 0.0
2018-Feb-14 09:00N 39°51' W 075°18'0 0.0
2018-Feb-14 08:30N 39°51' W 075°18'0 0.0
2018-Feb-14 08:00N 39°51' W 075°18'0 0.0
2018-Feb-14 07:31N 39°51' W 075°18'0 0.0
2018-Feb-14 07:00N 39°51' W 075°18'0 0.0
2018-Feb-14 06:31N 39°51' W 075°18'0 0.0
2018-Feb-14 06:00N 39°51' W 075°18'0 0.0
2018-Feb-14 05:30N 39°51' W 075°18'0 0.0
2018-Feb-14 05:01N 39°51' W 075°18'0 0.0
2018-Feb-14 04:30N 39°51' W 075°18'0 0.0
2018-Feb-14 03:59N 39°51' W 075°18'0 0.0
2018-Feb-14 03:30N 39°51' W 075°18'0 0.0
2018-Feb-14 03:00N 39°51' W 075°18'0 0.0
2018-Feb-14 02:30N 39°51' W 075°18'0 0.0
2018-Feb-14 02:00N 39°51' W 075°18'0 0.0
2018-Feb-14 01:30N 39°51' W 075°18'0 0.0
2018-Feb-14 01:00N 39°51' W 075°18'0 0.0
2018-Feb-14 00:30N 39°51' W 075°18'0 0.0
2018-Feb-13 23:59N 39°51' W 075°18'0 0.0
2018-Feb-13 23:30N 39°51' W 075°18'0 0.1
2018-Feb-13 23:00N 39°51' W 075°18'0 0.1
2018-Feb-13 22:30N 39°51' W 075°18'0 0.3
2018-Feb-13 22:00N 39°51' W 075°18'0 0.0
2018-Feb-13 21:31N 39°51' W 075°18'0 0.0
2018-Feb-13 21:01N 39°51' W 075°18'0 0.1
2018-Feb-13 20:30N 39°51' W 075°18'1 2.3
2018-Feb-13 20:00N 39°51' W 075°20'2 4.4
2018-Feb-13 19:30N 39°49' W 075°22'1 1.1
2018-Feb-13 19:00N 39°50' W 075°22'3 6.4
2018-Feb-13 18:30N 39°51' W 075°18'0 0.1
2018-Feb-13 18:00N 39°51' W 075°18'0 0.0
2018-Feb-13 17:30N 39°51' W 075°18'0 0.0
2018-Feb-13 17:00N 39°51' W 075°18'0 0.3
2018-Feb-13 16:31N 39°51' W 075°18'0 0.1
2018-Feb-13 16:00N 39°51' W 075°18'3 6.0
2018-Feb-13 15:31N 39°50' W 075°21'1 1.3
2018-Feb-13 15:00N 39°49' W 075°21'0 0.2
2018-Feb-13 14:31N 39°49' W 075°22'1 2.8
2018-Feb-13 14:00N 39°51' W 075°21'2 4.4
2018-Feb-13 13:30N 39°51' W 075°18'0 0.0
2018-Feb-13 13:01N 39°51' W 075°18'0 0.0
2018-Feb-13 12:30N 39°51' W 075°18'0 0.0
2018-Feb-13 12:00N 39°51' W 075°18'0 0.0
2018-Feb-13 11:31N 39°51' W 075°18'0 0.0
2018-Feb-13 11:01N 39°51' W 075°18'0 0.0
2018-Feb-13 10:31N 39°51' W 075°18'0 0.0
2018-Feb-13 10:00N 39°51' W 075°18'0 0.0
2018-Feb-13 09:31N 39°51' W 075°18'0 0.0
2018-Feb-13 09:00N 39°51' W 075°18'0 0.0
2018-Feb-13 08:30N 39°51' W 075°18'0 0.0
2018-Feb-13 08:00N 39°51' W 075°18'0 0.0
2018-Feb-13 07:31N 39°51' W 075°18'0 0.0
2018-Feb-13 07:00N 39°51' W 075°18'0 0.0
2018-Feb-13 06:31N 39°51' W 075°18'0 0.0
2018-Feb-13 06:01N 39°51' W 075°18'0 0.0
2018-Feb-13 05:30N 39°51' W 075°18'0 0.0
2018-Feb-13 05:00N 39°51' W 075°18'0 0.0
2018-Feb-13 04:30N 39°51' W 075°18'0 0.0
2018-Feb-13 04:00N 39°51' W 075°18'0 0.0
2018-Feb-13 03:31N 39°51' W 075°18'0 0.0
2018-Feb-13 03:00N 39°51' W 075°18'0 0.0
2018-Feb-13 02:30N 39°51' W 075°18'0 0.0
2018-Feb-13 02:01N 39°51' W 075°18'0 0.0
2018-Feb-13 01:30N 39°51' W 075°18'0 0.0
2018-Feb-13 01:00N 39°51' W 075°18'0 0.0
2018-Feb-13 00:30N 39°51' W 075°18'0 0.0
2018-Feb-13 00:00N 39°51' W 075°18'0 0.1
2018-Feb-12 23:31N 39°51' W 075°18'3 6.3
2018-Feb-12 23:00N 39°50' W 075°22'1 2.7
2018-Feb-12 22:31N 39°51' W 075°21'2 4.4
2018-Feb-12 22:00N 39°51' W 075°18'0 0.0
2018-Feb-12 21:30N 39°51' W 075°18'0 0.0
2018-Feb-12 21:00N 39°51' W 075°18'0 0.0
2018-Feb-12 20:30N 39°51' W 075°18'0 0.0
2018-Feb-12 20:00N 39°51' W 075°18'0 0.0
2018-Feb-12 19:30N 39°51' W 075°18'0 0.1
2018-Feb-12 19:01N 39°51' W 075°18'0 0.2
2018-Feb-12 18:30N 39°51' W 075°18'0 0.5
2018-Feb-12 18:00N 39°51' W 075°18'0 0.4
2018-Feb-12 17:30N 39°51' W 075°18'0 0.4
2018-Feb-12 17:00N 39°51' W 075°18'0 0.0
2018-Feb-12 16:30N 39°51' W 075°18'0 0.2
2018-Feb-12 16:00N 39°51' W 075°18'0 0.2
2018-Feb-12 15:30N 39°51' W 075°18'0 0.0
2018-Feb-12 15:00N 39°51' W 075°18'0 0.0
2018-Feb-12 14:30N 39°51' W 075°18'0 0.0
2018-Feb-12 14:00N 39°51' W 075°18'0 0.0
2018-Feb-12 13:30N 39°51' W 075°18'0 0.0
2018-Feb-12 13:00N 39°51' W 075°18'0 0.0
2018-Feb-12 12:30N 39°51' W 075°18'0 0.0
2018-Feb-12 12:00N 39°51' W 075°18'0 0.0
2018-Feb-12 11:31N 39°51' W 075°18'0 0.0
2018-Feb-12 11:00N 39°51' W 075°18'0 0.0
2018-Feb-12 10:30N 39°51' W 075°18'0 0.0
2018-Feb-12 10:01N 39°51' W 075°18'0 0.0
2018-Feb-12 09:31N 39°51' W 075°18'0 0.0
2018-Feb-12 09:01N 39°51' W 075°18'0 0.0
2018-Feb-12 08:30N 39°51' W 075°18'0 0.0
2018-Feb-12 08:00N 39°51' W 075°18'0 0.0
2018-Feb-12 07:30N 39°51' W 075°18'0 0.0
2018-Feb-12 07:00N 39°51' W 075°18'0 0.0
2018-Feb-12 06:30N 39°51' W 075°18'0 0.0
2018-Feb-12 06:00N 39°51' W 075°18'0 0.0
2018-Feb-12 05:30N 39°51' W 075°18'0 0.0
2018-Feb-12 05:00N 39°51' W 075°18'0 0.0
2018-Feb-12 04:30N 39°51' W 075°18'0 0.0
2018-Feb-12 04:00N 39°51' W 075°18'0 0.0
2018-Feb-12 03:31N 39°51' W 075°18'0 0.0
2018-Feb-12 03:00N 39°51' W 075°18'0 0.0
2018-Feb-12 02:30N 39°51' W 075°18'0 0.0
2018-Feb-12 02:00N 39°51' W 075°18'0 0.0
2018-Feb-12 01:31N 39°51' W 075°18'0 0.0
2018-Feb-12 01:00N 39°51' W 075°18'0 0.0
2018-Feb-12 00:30N 39°51' W 075°18'0 0.0
2018-Feb-12 00:00N 39°51' W 075°18'2 4.8
2018-Feb-11 23:30N 39°51' W 075°15'510.2
2018-Feb-11 23:00N 39°53' W 075°08'4 8.3
2018-Feb-11 22:30N 39°57' W 075°08'0 0.0
2018-Feb-11 13:41N 39°57' W 075°08'0 0.0
2018-Feb-11 13:31N 39°57' W 075°08'0 0.0
2018-Feb-11 13:01N 39°57' W 075°08'4 7.1
2018-Feb-11 12:31N 39°54' W 075°08'4 8.5
2018-Feb-11 12:00N 39°52' W 075°13'4 7.4
2018-Feb-11 11:31N 39°51' W 075°18'0 0.0
2018-Feb-11 11:01N 39°51' W 075°18'0 0.0
2018-Feb-11 10:30N 39°51' W 075°18'0 0.0
2018-Feb-11 10:00N 39°51' W 075°18'0 0.0
2018-Feb-11 09:31N 39°51' W 075°18'0 0.0
2018-Feb-11 09:01N 39°51' W 075°18'0 0.0
2018-Feb-11 08:31N 39°51' W 075°18'0 0.0
2018-Feb-11 08:01N 39°51' W 075°18'0 0.0
2018-Feb-11 07:31N 39°51' W 075°18'0 0.0
2018-Feb-11 07:00N 39°51' W 075°18'0 0.0
2018-Feb-11 06:30N 39°51' W 075°18'0 0.0
2018-Feb-11 06:00N 39°51' W 075°18'0 0.0
2018-Feb-11 05:31N 39°51' W 075°18'0 0.0
2018-Feb-11 05:01N 39°51' W 075°18'0 0.0
2018-Feb-11 04:30N 39°51' W 075°18'0 0.0
2018-Feb-11 04:01N 39°51' W 075°18'0 0.0
2018-Feb-11 03:30N 39°51' W 075°18'0 0.0
2018-Feb-11 03:01N 39°51' W 075°18'0 0.0
2018-Feb-11 02:31N 39°51' W 075°18'0 0.0
2018-Feb-11 02:00N 39°51' W 075°18'0 0.0
2018-Feb-11 01:30N 39°51' W 075°18'0 0.0
2018-Feb-11 01:00N 39°51' W 075°18'0 0.0
2018-Feb-11 00:30N 39°51' W 075°18'0 0.0
2018-Feb-11 00:01N 39°51' W 075°18'0 0.0
2018-Feb-10 23:31N 39°51' W 075°18'0 0.0
2018-Feb-10 23:00N 39°51' W 075°18'0 0.0
2018-Feb-10 22:30N 39°51' W 075°18'0 0.2
2018-Feb-10 22:00N 39°51' W 075°18'0 0.0
2018-Feb-10 21:30N 39°51' W 075°18'0 0.2
2018-Feb-10 21:00N 39°51' W 075°18'0 0.0
2018-Feb-10 20:31N 39°51' W 075°18'0 0.0
2018-Feb-10 20:01N 39°51' W 075°18'0 0.0
2018-Feb-10 19:30N 39°51' W 075°18'0 0.1
2018-Feb-10 19:00N 39°51' W 075°18'0 0.0
2018-Feb-10 18:31N 39°51' W 075°18'0 0.0
2018-Feb-10 18:00N 39°51' W 075°18'0 0.0
2018-Feb-10 17:31N 39°51' W 075°18'0 0.3
2018-Feb-10 17:00N 39°51' W 075°18'0 0.1
2018-Feb-10 16:30N 39°51' W 075°18'2 3.2
2018-Feb-10 16:00N 39°51' W 075°20'2 3.5
2018-Feb-10 15:30N 39°49' W 075°21'0 0.1
2018-Feb-10 15:00N 39°49' W 075°21'0 0.2
2018-Feb-10 14:31N 39°49' W 075°22'0 0.9
2018-Feb-10 14:00N 39°50' W 075°22'3 6.0
2018-Feb-10 13:30N 39°51' W 075°18'1 1.2
2018-Feb-10 13:00N 39°51' W 075°18'0 0.0
2018-Feb-10 12:30N 39°51' W 075°18'0 0.2
2018-Feb-10 12:00N 39°51' W 075°18'0 0.0
2018-Feb-10 11:30N 39°51' W 075°18'0 0.0
2018-Feb-10 11:00N 39°51' W 075°18'0 0.0
2018-Feb-10 10:28N 39°51' W 075°18'0 0.0
2018-Feb-10 10:00N 39°51' W 075°18'0 0.0
2018-Feb-10 09:31N 39°51' W 075°18'0 0.0
2018-Feb-10 09:00N 39°51' W 075°18'0 0.0
2018-Feb-10 08:30N 39°51' W 075°18'0 0.0
2018-Feb-10 08:00N 39°51' W 075°18'0 0.0
2018-Feb-10 07:30N 39°51' W 075°18'0 0.0
2018-Feb-10 07:00N 39°51' W 075°18'0 0.0
2018-Feb-10 06:30N 39°51' W 075°18'0 0.0
2018-Feb-10 06:00N 39°51' W 075°18'0 0.0
2018-Feb-10 05:30N 39°51' W 075°18'0 0.0
2018-Feb-10 05:00N 39°51' W 075°18'0 0.0
2018-Feb-10 04:30N 39°51' W 075°18'0 0.0
2018-Feb-10 04:01N 39°51' W 075°18'0 0.0
2018-Feb-10 03:30N 39°51' W 075°18'0 0.0
2018-Feb-10 03:01N 39°51' W 075°18'0 0.0
2018-Feb-10 02:30N 39°51' W 075°18'0 0.0
2018-Feb-10 02:01N 39°51' W 075°18'0 0.0
2018-Feb-10 01:29N 39°51' W 075°18'0 0.0
2018-Feb-10 01:00N 39°51' W 075°18'0 0.0
2018-Feb-10 00:30N 39°51' W 075°18'  
Track history (hours):
 
Tides and Currents Weather Stations Pressure Air Temp Water Temp Dewpoint Dewpoint Depression Visibility Wind Speed Wind Dir Waves Ship Positions

Shelby

Owner: WEEKS MARINE, INC., CRANFORD, NJ. More information available from US FCC via Universal Licensing System and Coast Guard Vessel Documentation Center.

Last reported at 2018-Feb-20 00:00 UTC. Time now 2018-Feb-20 00:06 UTC.
Position N 39°49' W 075°22'.

Length 22 m; draft 3.1 m.

Type: Tug. MMSI: 366902344.

Date/timePositionNaut miles runAvg speedWind from/ knotsBaromVisibWave heightAir tempDewpointWater temp
2018-Feb-20 00:00N 39°49' W 075°22'0 0.6
2018-Feb-19 23:31N 39°50' W 075°22'2 4.4
2018-Feb-19 23:00N 39°51' W 075°20'1 2.9
2018-Feb-19 22:30N 39°51' W 075°18'0 0.0
2018-Feb-19 22:00N 39°51' W 075°18'0 0.0
2018-Feb-19 21:30N 39°51' W 075°18'0 0.0
2018-Feb-19 21:00N 39°51' W 075°18'0 0.0
2018-Feb-19 20:30N 39°51' W 075°18'0 0.0
2018-Feb-19 20:00N 39°51' W 075°18'0 0.0
2018-Feb-19 19:30N 39°51' W 075°18'0 0.0
2018-Feb-19 19:01N 39°51' W 075°18'2 4.7
2018-Feb-19 18:30N 39°51' W 075°21'1 1.6
2018-Feb-19 18:00N 39°50' W 075°22'3 6.2
2018-Feb-19 17:30N 39°51' W 075°18'0 0.1
2018-Feb-19 17:00N 39°51' W 075°18'0 0.0
2018-Feb-19 16:30N 39°51' W 075°18'0 0.2
2018-Feb-19 16:01N 39°51' W 075°18'0 0.2
2018-Feb-19 15:30N 39°51' W 075°18'0 0.0
2018-Feb-19 15:00N 39°51' W 075°18'0 0.0
2018-Feb-19 14:30N 39°51' W 075°18'0 0.0
2018-Feb-19 14:00N 39°51' W 075°18'0 0.0
2018-Feb-19 13:30N 39°51' W 075°18'0 0.2
2018-Feb-19 13:00N 39°51' W 075°18'0 0.2
2018-Feb-19 12:30N 39°51' W 075°18'0 0.2
2018-Feb-19 12:00N 39°51' W 075°18'1 3.0
2018-Feb-19 11:30N 39°51' W 075°20'2 4.0
2018-Feb-19 11:00N 39°49' W 075°21'0 0.0
2018-Feb-19 10:31N 39°49' W 075°21'0 0.0
2018-Feb-19 10:01N 39°49' W 075°21'0 0.0
2018-Feb-19 09:31N 39°49' W 075°21'0 0.0
2018-Feb-19 09:00N 39°49' W 075°21'0 0.0
2018-Feb-19 08:30N 39°49' W 075°21'0 0.0
2018-Feb-19 08:00N 39°49' W 075°21'0 0.0
2018-Feb-19 07:31N 39°49' W 075°21'0 0.0
2018-Feb-19 07:01N 39°49' W 075°21'0 0.0
2018-Feb-19 06:31N 39°49' W 075°21'0 0.0
2018-Feb-19 06:01N 39°49' W 075°21'0 0.0
2018-Feb-19 05:31N 39°49' W 075°21'0 0.0
2018-Feb-19 05:00N 39°49' W 075°21'0 0.0
2018-Feb-19 04:30N 39°49' W 075°21'0 0.0
2018-Feb-19 04:00N 39°49' W 075°21'0 0.0
2018-Feb-19 03:30N 39°49' W 075°21'0 0.0
2018-Feb-19 03:01N 39°49' W 075°21'0 0.0
2018-Feb-19 02:30N 39°49' W 075°21'0 0.0
2018-Feb-19 02:01N 39°49' W 075°21'0 0.0
2018-Feb-19 01:30N 39°49' W 075°21'0 0.0
2018-Feb-19 01:01N 39°49' W 075°21'0 0.0
2018-Feb-19 00:31N 39°49' W 075°21'0 0.1
2018-Feb-19 00:00N 39°50' W 075°21'1 2.1
2018-Feb-18 23:30N 39°51' W 075°21'3 5.1
2018-Feb-18 23:01N 39°51' W 075°18'0 0.1
2018-Feb-18 22:30N 39°51' W 075°18'0 0.1
2018-Feb-18 22:01N 39°51' W 075°18'0 0.0
2018-Feb-18 21:31N 39°51' W 075°18'0 0.0
2018-Feb-18 21:00N 39°51' W 075°18'0 0.0
2018-Feb-18 20:30N 39°51' W 075°18'0 0.1
2018-Feb-18 20:00N 39°51' W 075°18'0 0.0
2018-Feb-18 19:30N 39°51' W 075°18'0 0.2
2018-Feb-18 19:00N 39°51' W 075°18'0 0.5
2018-Feb-18 18:31N 39°51' W 075°18'3 6.4
2018-Feb-18 18:01N 39°50' W 075°22'0 0.9
2018-Feb-18 17:31N 39°49' W 075°21'1 2.1
2018-Feb-18 17:01N 39°50' W 075°21'2 4.9
2018-Feb-18 16:30N 39°51' W 075°18'0 0.1
2018-Feb-18 16:00N 39°51' W 075°18'0 0.0
2018-Feb-18 15:30N 39°51' W 075°18'0 0.0
2018-Feb-18 15:00N 39°51' W 075°18'0 0.0
2018-Feb-18 14:30N 39°51' W 075°18'0 0.0
2018-Feb-18 14:00N 39°51' W 075°18'0 0.0
2018-Feb-18 13:31N 39°51' W 075°18'0 0.0
2018-Feb-18 13:00N 39°51' W 075°18'0 0.2
2018-Feb-18 12:31N 39°51' W 075°18'0 0.2
2018-Feb-18 12:00N 39°51' W 075°18'2 4.3
2018-Feb-18 11:30N 39°51' W 075°21'1 2.8
2018-Feb-18 11:01N 39°49' W 075°22'0 0.0
2018-Feb-18 10:30N 39°49' W 075°22'0 0.0
2018-Feb-18 10:00N 39°49' W 075°22'0 0.0
2018-Feb-18 09:31N 39°49' W 075°22'0 0.0
2018-Feb-18 09:00N 39°49' W 075°22'0 0.0
2018-Feb-18 08:30N 39°49' W 075°22'0 0.0
2018-Feb-18 08:00N 39°49' W 075°22'0 0.0
2018-Feb-18 07:31N 39°49' W 075°22'0 0.0
2018-Feb-18 07:01N 39°49' W 075°22'0 0.0
2018-Feb-18 06:31N 39°49' W 075°22'0 0.0
2018-Feb-18 06:01N 39°49' W 075°22'0 0.0
2018-Feb-18 05:30N 39°49' W 075°22'0 0.0
2018-Feb-18 05:01N 39°49' W 075°22'0 0.0
2018-Feb-18 04:30N 39°49' W 075°22'0 0.0
2018-Feb-18 04:01N 39°49' W 075°22'0 0.0
2018-Feb-18 03:30N 39°49' W 075°22'0 0.0
2018-Feb-18 03:00N 39°49' W 075°22'0 0.0
2018-Feb-18 02:30N 39°49' W 075°22'0 0.0
2018-Feb-18 02:01N 39°49' W 075°22'0 0.1
2018-Feb-18 01:30N 39°49' W 075°22'3 6.3
2018-Feb-18 01:00N 39°51' W 075°18'0 0.0
2018-Feb-18 00:29N 39°51' W 075°18'0 0.0
2018-Feb-18 00:01N 39°51' W 075°18'0 0.0
2018-Feb-17 23:30N 39°51' W 075°18'0 0.1
2018-Feb-17 23:00N 39°51' W 075°18'0 0.0
2018-Feb-17 22:31N 39°51' W 075°18'0 0.0
2018-Feb-17 22:00N 39°51' W 075°18'0 0.1
2018-Feb-17 21:31N 39°51' W 075°18'0 0.0
2018-Feb-17 21:00N 39°51' W 075°18'0 0.0
2018-Feb-17 20:30N 39°51' W 075°18'0 0.0
2018-Feb-17 20:00N 39°51' W 075°18'0 0.0
2018-Feb-17 19:31N 39°51' W 075°18'0 0.1
2018-Feb-17 19:00N 39°51' W 075°18'0 0.0
2018-Feb-17 18:30N 39°51' W 075°18'0 0.0
2018-Feb-17 18:00N 39°51' W 075°18'0 0.0
2018-Feb-17 17:30N 39°51' W 075°18'0 0.0
2018-Feb-17 17:00N 39°51' W 075°18'0 0.0
2018-Feb-17 16:30N 39°51' W 075°18'0 0.2
2018-Feb-17 16:00N 39°51' W 075°18'0 0.2
2018-Feb-17 15:30N 39°51' W 075°18'1 3.0
2018-Feb-17 15:01N 39°51' W 075°20'2 3.9
2018-Feb-17 14:30N 39°49' W 075°21'0 0.1
2018-Feb-17 14:01N 39°50' W 075°22'3 6.0
2018-Feb-17 13:31N 39°51' W 075°18'0 0.3
2018-Feb-17 13:00N 39°51' W 075°18'0 0.0
2018-Feb-17 12:31N 39°51' W 075°18'0 0.0
2018-Feb-17 12:00N 39°51' W 075°18'0 0.0
2018-Feb-16 18:54N 39°51' W 075°18'0 0.0
2018-Feb-16 18:31N 39°51' W 075°18'0 0.0
2018-Feb-16 18:01N 39°51' W 075°18'0 0.0
2018-Feb-16 17:30N 39°51' W 075°18'0 0.0
2018-Feb-16 17:00N 39°51' W 075°18'0 0.0
2018-Feb-16 16:31N 39°51' W 075°18'0 0.0
2018-Feb-16 16:00N 39°51' W 075°18'0 0.0
2018-Feb-16 15:31N 39°51' W 075°18'0 0.0
2018-Feb-16 15:01N 39°51' W 075°18'1 2.5
2018-Feb-16 14:30N 39°51' W 075°19'2 4.3
2018-Feb-16 14:01N 39°50' W 075°22'2 3.5
2018-Feb-16 13:31N 39°51' W 075°20'2 3.4
2018-Feb-16 13:00N 39°51' W 075°18'0 0.0
2018-Feb-16 12:30N 39°51' W 075°18'0 0.0
2018-Feb-16 12:00N 39°51' W 075°18'2 3.5
2018-Feb-16 11:30N 39°51' W 075°20'2 3.4
2018-Feb-16 11:01N 39°50' W 075°22'0 0.1
2018-Feb-16 10:31N 39°49' W 075°21'0 0.0
2018-Feb-16 10:01N 39°49' W 075°21'0 0.0
2018-Feb-16 09:31N 39°49' W 075°21'0 0.0
2018-Feb-16 09:00N 39°49' W 075°21'0 0.0
2018-Feb-16 08:30N 39°49' W 075°21'0 0.0
2018-Feb-16 08:00N 39°49' W 075°21'0 0.0
2018-Feb-16 07:31N 39°49' W 075°21'0 0.0
2018-Feb-16 07:01N 39°49' W 075°21'0 0.0
2018-Feb-16 06:31N 39°49' W 075°21'0 0.0
2018-Feb-16 06:01N 39°49' W 075°21'0 0.0
2018-Feb-16 05:30N 39°49' W 075°21'0 0.0
2018-Feb-16 05:01N 39°49' W 075°21'0 0.0
2018-Feb-16 04:30N 39°49' W 075°21'0 0.0
2018-Feb-16 04:00N 39°49' W 075°21'0 0.0
2018-Feb-16 03:31N 39°49' W 075°21'0 0.0
2018-Feb-16 03:01N 39°49' W 075°21'0 0.0
2018-Feb-16 02:31N 39°49' W 075°21'0 0.0
2018-Feb-16 02:00N 39°49' W 075°21'0 0.0
2018-Feb-16 01:30N 39°49' W 075°21'1 0.6
2018-Feb-15 23:06N 39°51' W 075°21'1 9.7
2018-Feb-15 23:00N 39°51' W 075°19'1 2.5
2018-Feb-15 22:30N 39°51' W 075°18'0 0.0
2018-Feb-15 22:00N 39°51' W 075°18'0 0.1
2018-Feb-15 21:30N 39°51' W 075°18'0 0.2
2018-Feb-15 21:01N 39°51' W 075°18'0 0.0
2018-Feb-15 20:31N 39°51' W 075°18'0 0.0
2018-Feb-15 20:00N 39°51' W 075°18'0 0.2
2018-Feb-15 19:31N 39°51' W 075°18'0 0.3
2018-Feb-15 19:01N 39°51' W 075°18'0 0.0
2018-Feb-15 18:30N 39°51' W 075°18'0 0.1
2018-Feb-15 18:01N 39°51' W 075°18'0 0.0
2018-Feb-15 17:30N 39°51' W 075°18'0 0.0
2018-Feb-15 17:00N 39°51' W 075°18'0 0.0
2018-Feb-15 16:30N 39°51' W 075°18'0 0.0
2018-Feb-15 16:00N 39°51' W 075°18'0 0.0
2018-Feb-15 15:30N 39°51' W 075°18'0 0.0
2018-Feb-15 15:01N 39°51' W 075°18'0 0.0
2018-Feb-15 14:30N 39°51' W 075°18'0 0.0
2018-Feb-15 14:00N 39°51' W 075°18'0 0.3
2018-Feb-15 13:30N 39°51' W 075°18'0 0.0
2018-Feb-15 13:01N 39°51' W 075°18'0 0.1
2018-Feb-15 12:31N 39°51' W 075°18'1 1.9
2018-Feb-15 12:01N 39°51' W 075°19'2 4.7
2018-Feb-15 11:31N 39°50' W 075°22'0 0.3
2018-Feb-15 11:01N 39°49' W 075°21'0 0.0
2018-Feb-15 10:31N 39°49' W 075°21'0 0.0
2018-Feb-15 10:01N 39°49' W 075°21'0 0.0
2018-Feb-15 09:30N 39°49' W 075°21'0 0.0
2018-Feb-15 09:01N 39°49' W 075°21'0 0.0
2018-Feb-15 08:30N 39°49' W 075°21'0 0.0
2018-Feb-15 08:01N 39°49' W 075°21'0 0.0
2018-Feb-15 07:30N 39°49' W 075°21'0 0.0
2018-Feb-15 07:00N 39°49' W 075°21'0 0.0
2018-Feb-15 06:30N 39°49' W 075°21'0 0.0
2018-Feb-15 06:00N 39°49' W 075°21'0 0.0
2018-Feb-15 05:31N 39°49' W 075°21'0 0.0
2018-Feb-15 05:01N 39°49' W 075°21'0 0.0
2018-Feb-15 04:30N 39°49' W 075°21'0 0.0
2018-Feb-15 04:00N 39°49' W 075°21'0 0.0
2018-Feb-15 03:31N 39°49' W 075°21'0 0.0
2018-Feb-15 03:01N 39°49' W 075°21'0 0.0
2018-Feb-15 02:31N 39°49' W 075°21'0 0.0
2018-Feb-15 02:00N 39°49' W 075°21'0 0.0
2018-Feb-15 01:31N 39°49' W 075°21'0 0.0
2018-Feb-15 01:01N 39°49' W 075°21'0 0.0
2018-Feb-15 00:30N 39°49' W 075°21'0 0.0
2018-Feb-15 00:00N 39°49' W 075°21'0 0.0
2018-Feb-14 23:31N 39°49' W 075°21'0 0.0
2018-Feb-14 23:01N 39°49' W 075°21'0 0.9
2018-Feb-14 22:31N 39°50' W 075°22'3 6.7
2018-Feb-14 22:00N 39°51' W 075°18'0 0.1
2018-Feb-14 21:30N 39°51' W 075°18'0 0.3
2018-Feb-14 21:00N 39°51' W 075°18'0 0.0
2018-Feb-14 20:30N 39°51' W 075°18'0 0.0
2018-Feb-14 20:00N 39°51' W 075°18'0 0.0
2018-Feb-14 19:30N 39°51' W 075°18'0 0.0
2018-Feb-14 19:00N 39°51' W 075°18'0 0.0
2018-Feb-14 18:30N 39°51' W 075°18'0 0.0
2018-Feb-14 18:00N 39°51' W 075°18'0 0.0
2018-Feb-14 17:31N 39°51' W 075°18'0 0.0
2018-Feb-14 17:00N 39°51' W 075°18'0 0.0
2018-Feb-14 16:30N 39°51' W 075°18'0 0.0
2018-Feb-14 16:01N 39°51' W 075°18'0 0.3
2018-Feb-14 15:30N 39°51' W 075°18'0 0.1
2018-Feb-14 15:01N 39°51' W 075°18'0 0.1
2018-Feb-14 14:30N 39°51' W 075°18'0 0.0
2018-Feb-14 14:01N 39°51' W 075°18'0 0.0
2018-Feb-14 13:30N 39°51' W 075°18'0 0.1
2018-Feb-14 13:01N 39°51' W 075°18'0 0.1
2018-Feb-14 12:30N 39°51' W 075°18'0 0.0
2018-Feb-14 12:00N 39°51' W 075°18'0 0.0
2018-Feb-14 11:30N 39°51' W 075°18'0 0.0
2018-Feb-14 11:00N 39°51' W 075°18'0 0.0
2018-Feb-14 10:31N 39°51' W 075°18'0 0.0
2018-Feb-14 10:00N 39°51' W 075°18'0 0.0
2018-Feb-14 09:30N 39°51' W 075°18'0 0.0
2018-Feb-14 09:00N 39°51' W 075°18'0 0.0
2018-Feb-14 08:30N 39°51' W 075°18'0 0.0
2018-Feb-14 08:00N 39°51' W 075°18'0 0.0
2018-Feb-14 07:31N 39°51' W 075°18'0 0.0
2018-Feb-14 07:00N 39°51' W 075°18'0 0.0
2018-Feb-14 06:31N 39°51' W 075°18'0 0.0
2018-Feb-14 06:00N 39°51' W 075°18'0 0.0
2018-Feb-14 05:30N 39°51' W 075°18'0 0.0
2018-Feb-14 05:01N 39°51' W 075°18'0 0.0
2018-Feb-14 04:30N 39°51' W 075°18'0 0.0
2018-Feb-14 03:59N 39°51' W 075°18'0 0.0
2018-Feb-14 03:30N 39°51' W 075°18'0 0.0
2018-Feb-14 03:00N 39°51' W 075°18'0 0.0
2018-Feb-14 02:30N 39°51' W 075°18'0 0.0
2018-Feb-14 02:00N 39°51' W 075°18'0 0.0
2018-Feb-14 01:30N 39°51' W 075°18'0 0.0
2018-Feb-14 01:00N 39°51' W 075°18'0 0.0
2018-Feb-14 00:30N 39°51' W 075°18'0 0.0
2018-Feb-13 23:59N 39°51' W 075°18'0 0.0
2018-Feb-13 23:30N 39°51' W 075°18'0 0.1
2018-Feb-13 23:00N 39°51' W 075°18'0 0.1
2018-Feb-13 22:30N 39°51' W 075°18'0 0.3
2018-Feb-13 22:00N 39°51' W 075°18'0 0.0
2018-Feb-13 21:31N 39°51' W 075°18'0 0.0
2018-Feb-13 21:01N 39°51' W 075°18'0 0.1
2018-Feb-13 20:30N 39°51' W 075°18'1 2.3
2018-Feb-13 20:00N 39°51' W 075°20'2 4.4
2018-Feb-13 19:30N 39°49' W 075°22'1 1.1
2018-Feb-13 19:00N 39°50' W 075°22'3 6.4
2018-Feb-13 18:30N 39°51' W 075°18'0 0.1
2018-Feb-13 18:00N 39°51' W 075°18'0 0.0
2018-Feb-13 17:30N 39°51' W 075°18'0 0.0
2018-Feb-13 17:00N 39°51' W 075°18'0 0.3
2018-Feb-13 16:31N 39°51' W 075°18'0 0.1
2018-Feb-13 16:00N 39°51' W 075°18'3 6.0
2018-Feb-13 15:31N 39°50' W 075°21'1 1.3
2018-Feb-13 15:00N 39°49' W 075°21'0 0.2
2018-Feb-13 14:31N 39°49' W 075°22'1 2.8
2018-Feb-13 14:00N 39°51' W 075°21'2 4.4
2018-Feb-13 13:30N 39°51' W 075°18'0 0.0
2018-Feb-13 13:01N 39°51' W 075°18'0 0.0
2018-Feb-13 12:30N 39°51' W 075°18'0 0.0
2018-Feb-13 12:00N 39°51' W 075°18'0 0.0
2018-Feb-13 11:31N 39°51' W 075°18'0 0.0
2018-Feb-13 11:01N 39°51' W 075°18'0 0.0
2018-Feb-13 10:31N 39°51' W 075°18'0 0.0
2018-Feb-13 10:00N 39°51' W 075°18'0 0.0
2018-Feb-13 09:31N 39°51' W 075°18'0 0.0
2018-Feb-13 09:00N 39°51' W 075°18'0 0.0
2018-Feb-13 08:30N 39°51' W 075°18'0 0.0
2018-Feb-13 08:00N 39°51' W 075°18'0 0.0
2018-Feb-13 07:31N 39°51' W 075°18'0 0.0
2018-Feb-13 07:00N 39°51' W 075°18'0 0.0
2018-Feb-13 06:31N 39°51' W 075°18'0 0.0
2018-Feb-13 06:01N 39°51' W 075°18'0 0.0
2018-Feb-13 05:30N 39°51' W 075°18'0 0.0
2018-Feb-13 05:00N 39°51' W 075°18'0 0.0
2018-Feb-13 04:30N 39°51' W 075°18'0 0.0
2018-Feb-13 04:00N 39°51' W 075°18'0 0.0
2018-Feb-13 03:31N 39°51' W 075°18'0 0.0
2018-Feb-13 03:00N 39°51' W 075°18'0 0.0
2018-Feb-13 02:30N 39°51' W 075°18'0 0.0
2018-Feb-13 02:01N 39°51' W 075°18'0 0.0
2018-Feb-13 01:30N 39°51' W 075°18'0 0.0
2018-Feb-13 01:00N 39°51' W 075°18'0 0.0
2018-Feb-13 00:30N 39°51' W 075°18'0 0.0
2018-Feb-13 00:00N 39°51' W 075°18'0 0.1
2018-Feb-12 23:31N 39°51' W 075°18'3 6.3
2018-Feb-12 23:00N 39°50' W 075°22'1 2.7
2018-Feb-12 22:31N 39°51' W 075°21'2 4.4
2018-Feb-12 22:00N 39°51' W 075°18'0 0.0
2018-Feb-12 21:30N 39°51' W 075°18'0 0.0
2018-Feb-12 21:00N 39°51' W 075°18'0 0.0
2018-Feb-12 20:30N 39°51' W 075°18'0 0.0
2018-Feb-12 20:00N 39°51' W 075°18'0 0.0
2018-Feb-12 19:30N 39°51' W 075°18'0 0.1
2018-Feb-12 19:01N 39°51' W 075°18'0 0.2
2018-Feb-12 18:30N 39°51' W 075°18'0 0.5
2018-Feb-12 18:00N 39°51' W 075°18'0 0.4
2018-Feb-12 17:30N 39°51' W 075°18'0 0.4
2018-Feb-12 17:00N 39°51' W 075°18'0 0.0
2018-Feb-12 16:30N 39°51' W 075°18'0 0.2
2018-Feb-12 16:00N 39°51' W 075°18'0 0.2
2018-Feb-12 15:30N 39°51' W 075°18'0 0.0
2018-Feb-12 15:00N 39°51' W 075°18'0 0.0
2018-Feb-12 14:30N 39°51' W 075°18'0 0.0
2018-Feb-12 14:00N 39°51' W 075°18'0 0.0
2018-Feb-12 13:30N 39°51' W 075°18'0 0.0
2018-Feb-12 13:00N 39°51' W 075°18'0 0.0
2018-Feb-12 12:30N 39°51' W 075°18'0 0.0
2018-Feb-12 12:00N 39°51' W 075°18'0 0.0
2018-Feb-12 11:31N 39°51' W 075°18'0 0.0
2018-Feb-12 11:00N 39°51' W 075°18'0 0.0
2018-Feb-12 10:30N 39°51' W 075°18'0 0.0
2018-Feb-12 10:01N 39°51' W 075°18'0 0.0
2018-Feb-12 09:31N 39°51' W 075°18'0 0.0
2018-Feb-12 09:01N 39°51' W 075°18'0 0.0
2018-Feb-12 08:30N 39°51' W 075°18'0 0.0
2018-Feb-12 08:00N 39°51' W 075°18'0 0.0
2018-Feb-12 07:30N 39°51' W 075°18'0 0.0
2018-Feb-12 07:00N 39°51' W 075°18'0 0.0
2018-Feb-12 06:30N 39°51' W 075°18'0 0.0
2018-Feb-12 06:00N 39°51' W 075°18'0 0.0
2018-Feb-12 05:30N 39°51' W 075°18'0 0.0
2018-Feb-12 05:00N 39°51' W 075°18'0 0.0
2018-Feb-12 04:30N 39°51' W 075°18'0 0.0
2018-Feb-12 04:00N 39°51' W 075°18'0 0.0
2018-Feb-12 03:31N 39°51' W 075°18'0 0.0
2018-Feb-12 03:00N 39°51' W 075°18'0 0.0
2018-Feb-12 02:30N 39°51' W 075°18'0 0.0
2018-Feb-12 02:00N 39°51' W 075°18'0 0.0
2018-Feb-12 01:31N 39°51' W 075°18'0 0.0
2018-Feb-12 01:00N 39°51' W 075°18'0 0.0
2018-Feb-12 00:30N 39°51' W 075°18'0 0.0
2018-Feb-12 00:00N 39°51' W 075°18'2 4.8
2018-Feb-11 23:30N 39°51' W 075°15'510.2
2018-Feb-11 23:00N 39°53' W 075°08'4 8.3
2018-Feb-11 22:30N 39°57' W 075°08'0 0.0
2018-Feb-11 13:41N 39°57' W 075°08'0 0.0
2018-Feb-11 13:31N 39°57' W 075°08'0 0.0
2018-Feb-11 13:01N 39°57' W 075°08'4 7.1
2018-Feb-11 12:31N 39°54' W 075°08'4 8.5
2018-Feb-11 12:00N 39°52' W 075°13'4 7.4
2018-Feb-11 11:31N 39°51' W 075°18'0 0.0
2018-Feb-11 11:01N 39°51' W 075°18'0 0.0
2018-Feb-11 10:30N 39°51' W 075°18'0 0.0
2018-Feb-11 10:00N 39°51' W 075°18'0 0.0
2018-Feb-11 09:31N 39°51' W 075°18'0 0.0
2018-Feb-11 09:01N 39°51' W 075°18'0 0.0
2018-Feb-11 08:31N 39°51' W 075°18'0 0.0
2018-Feb-11 08:01N 39°51' W 075°18'0 0.0
2018-Feb-11 07:31N 39°51' W 075°18'0 0.0
2018-Feb-11 07:00N 39°51' W 075°18'0 0.0
2018-Feb-11 06:30N 39°51' W 075°18'0 0.0
2018-Feb-11 06:00N 39°51' W 075°18'0 0.0
2018-Feb-11 05:31N 39°51' W 075°18'0 0.0
2018-Feb-11 05:01N 39°51' W 075°18'0 0.0
2018-Feb-11 04:30N 39°51' W 075°18'0 0.0
2018-Feb-11 04:01N 39°51' W 075°18'0 0.0
2018-Feb-11 03:30N 39°51' W 075°18'0 0.0
2018-Feb-11 03:01N 39°51' W 075°18'0 0.0
2018-Feb-11 02:31N 39°51' W 075°18'0 0.0
2018-Feb-11 02:00N 39°51' W 075°18'0 0.0
2018-Feb-11 01:30N 39°51' W 075°18'0 0.0
2018-Feb-11 01:00N 39°51' W 075°18'0 0.0
2018-Feb-11 00:30N 39°51' W 075°18'0 0.0
2018-Feb-11 00:01N 39°51' W 075°18'0 0.0
2018-Feb-10 23:31N 39°51' W 075°18'0 0.0
2018-Feb-10 23:00N 39°51' W 075°18'0 0.0
2018-Feb-10 22:30N 39°51' W 075°18'0 0.2
2018-Feb-10 22:00N 39°51' W 075°18'0 0.0
2018-Feb-10 21:30N 39°51' W 075°18'0 0.2
2018-Feb-10 21:00N 39°51' W 075°18'0 0.0
2018-Feb-10 20:31N 39°51' W 075°18'0 0.0
2018-Feb-10 20:01N 39°51' W 075°18'0 0.0
2018-Feb-10 19:30N 39°51' W 075°18'0 0.1
2018-Feb-10 19:00N 39°51' W 075°18'0 0.0
2018-Feb-10 18:31N 39°51' W 075°18'0 0.0
2018-Feb-10 18:00N 39°51' W 075°18'0 0.0
2018-Feb-10 17:31N 39°51' W 075°18'0 0.3
2018-Feb-10 17:00N 39°51' W 075°18'0 0.1
2018-Feb-10 16:30N 39°51' W 075°18'2 3.2
2018-Feb-10 16:00N 39°51' W 075°20'2 3.5
2018-Feb-10 15:30N 39°49' W 075°21'0 0.1
2018-Feb-10 15:00N 39°49' W 075°21'0 0.2
2018-Feb-10 14:31N 39°49' W 075°22'0 0.9
2018-Feb-10 14:00N 39°50' W 075°22'3 6.0
2018-Feb-10 13:30N 39°51' W 075°18'1 1.2
2018-Feb-10 13:00N 39°51' W 075°18'0 0.0
2018-Feb-10 12:30N 39°51' W 075°18'0 0.2
2018-Feb-10 12:00N 39°51' W 075°18'0 0.0
2018-Feb-10 11:30N 39°51' W 075°18'0 0.0
2018-Feb-10 11:00N 39°51' W 075°18'0 0.0
2018-Feb-10 10:28N 39°51' W 075°18'0 0.0
2018-Feb-10 10:00N 39°51' W 075°18'0 0.0
2018-Feb-10 09:31N 39°51' W 075°18'0 0.0
2018-Feb-10 09:00N 39°51' W 075°18'0 0.0
2018-Feb-10 08:30N 39°51' W 075°18'0 0.0
2018-Feb-10 08:00N 39°51' W 075°18'0 0.0
2018-Feb-10 07:30N 39°51' W 075°18'0 0.0
2018-Feb-10 07:00N 39°51' W 075°18'0 0.0
2018-Feb-10 06:30N 39°51' W 075°18'0 0.0
2018-Feb-10 06:00N 39°51' W 075°18'0 0.0
2018-Feb-10 05:30N 39°51' W 075°18'0 0.0
2018-Feb-10 05:00N 39°51' W 075°18'0 0.0
2018-Feb-10 04:30N 39°51' W 075°18'0 0.0
2018-Feb-10 04:01N 39°51' W 075°18'0 0.0
2018-Feb-10 03:30N 39°51' W 075°18'0 0.0
2018-Feb-10 03:01N 39°51' W 075°18'0 0.0
2018-Feb-10 02:30N 39°51' W 075°18'0 0.0
2018-Feb-10 02:01N 39°51' W 075°18'0 0.0
2018-Feb-10 01:29N 39°51' W 075°18'0 0.0
2018-Feb-10 01:00N 39°51' W 075°18'0 0.0
2018-Feb-10 00:30N 39°51' W 075°18'  

Dump ship's entire track history